Time;durP1;ratioP1;P1;durP2;ratioP2;P2;SDS_P1;SDS_P2;PMS_P1;PMS_P2;Temp;Humidity;BMP_temperature;BMP_pressure;BME280_temperature;BME280_humidity;BME280_pressure;Samples;Min_cycle;Max_cycle;Signal;HPM_P1;HPM_P2
2022/03/07 00:00:56;;;;;;;;;;;3.70;37.30;;;;;;5063128;28;19921;-76
2022/03/07 00:03:21;;;;;;;;;;;3.70;37.20;;;;;;5055105;28;19913;-83
2022/03/07 00:05:47;;;;;;;;;;;3.70;37.30;;;;;;5055643;28;19919;-77
2022/03/07 00:08:14;;;;;;;;;;;3.70;37.40;;;;;;5050635;28;19920;-78
2022/03/07 00:10:40;;;;;;;;;;;3.70;37.30;;;;;;5067169;28;19951;-84
2022/03/07 00:13:06;;;;;;;;;;;3.60;37.30;;;;;;5052573;28;19929;-83
2022/03/07 00:15:32;;;;;;;;;;;3.60;37.40;;;;;;5058845;28;19927;-84
2022/03/07 00:17:58;;;;;;;;;;;3.60;37.40;;;;;;5058855;28;20044;-84
2022/03/07 00:20:24;;;;;;;;;;;3.60;37.30;;;;;;5061597;28;19920;-82
2022/03/07 00:22:50;;;;;;;;;;;3.60;37.20;;;;;;5061833;28;20440;-83
2022/03/07 00:25:16;;;;;;;;;;;3.60;37.20;;;;;;5038372;28;19927;-76
2022/03/07 00:27:42;;;;;;;;;;;3.60;37.10;;;;;;5051004;28;19925;-84
2022/03/07 00:30:09;;;;;;;;;;;3.60;37.30;;;;;;5052667;28;19921;-76
2022/03/07 00:32:35;;;;;;;;;;;3.50;36.90;;;;;;5053303;28;19927;-77
2022/03/07 00:35:01;;;;;;;;;;;3.50;37.60;;;;;;5034959;28;20369;-77
2022/03/07 00:37:27;;;;;;;;;;;3.40;38.20;;;;;;5051964;28;19928;-83
2022/03/07 00:39:53;;;;;;;;;;;3.40;37.10;;;;;;5051980;28;19972;-76
2022/03/07 00:42:19;;;;;;;;;;;3.40;37.50;;;;;;5083804;28;19916;-82
2022/03/07 00:44:45;;;;;;;;;;;3.40;36.90;;;;;;5050731;28;19921;-76
2022/03/07 00:47:11;;;;;;;;;;;3.40;37.40;;;;;;5046795;28;19920;-83
2022/03/07 00:49:37;;;;;;;;;;;3.30;37.40;;;;;;5052994;28;20362;-76
2022/03/07 00:52:03;;;;;;;;;;;3.40;37.40;;;;;;5066336;28;19920;-82
2022/03/07 00:54:29;;;;;;;;;;;3.30;37.20;;;;;;5067689;28;19931;-76
2022/03/07 00:56:55;;;;;;;;;;;3.40;37.40;;;;;;5072279;28;19917;-83
2022/03/07 00:59:21;;;;;;;;;;;3.30;37.40;;;;;;5052593;28;19924;-83
2022/03/07 01:01:47;;;;;;;;;;;3.30;37.50;;;;;;5052124;28;19952;-76
2022/03/07 01:04:13;;;;;;;;;;;3.40;37.40;;;;;;5034306;28;19921;-76
2022/03/07 01:06:38;;;;;;;;;;;3.30;37.40;;;;;;5033017;28;19920;-76
2022/03/07 01:09:19;;;;;;;;;;;3.30;37.30;;;;;;5107353;27;19919;-77
2022/03/07 01:11:45;;;;;;;;;;;3.30;37.40;;;;;;5078096;28;19917;-76
2022/03/07 01:14:12;;;;;;;;;;;3.30;37.50;;;;;;5069312;28;19925;-76
2022/03/07 01:16:38;;;;;;;;;;;3.30;37.40;;;;;;5057440;28;19920;-76
2022/03/07 01:19:03;;;;;;;;;;;3.20;37.60;;;;;;5079968;28;20325;-76
2022/03/07 01:21:29;;;;;;;;;;;3.20;37.70;;;;;;5070479;28;19916;-83
2022/03/07 01:23:55;;;;;;;;;;;3.10;37.80;;;;;;5085429;28;19927;-76
2022/03/07 01:26:21;;;;;;;;;;;3.00;37.80;;;;;;5068738;28;19931;-76
2022/03/07 01:28:47;;;;;;;;;;;2.90;37.90;;;;;;5069959;28;19931;-76
2022/03/07 01:31:13;;;;;;;;;;;2.90;38.10;;;;;;5067888;28;19924;-77
2022/03/07 01:33:39;;;;;;;;;;;2.80;37.60;;;;;;5067809;28;20301;-76
2022/03/07 01:36:05;;;;;;;;;;;2.80;38.10;;;;;;5084928;28;19920;-76
2022/03/07 01:38:31;;;;;;;;;;;2.70;38.10;;;;;;5068801;28;19925;-76
2022/03/07 01:40:57;;;;;;;;;;;2.70;38.30;;;;;;5101051;28;20486;-76
2022/03/07 01:43:23;;;;;;;;;;;2.60;38.30;;;;;;5070353;28;19925;-76
2022/03/07 01:45:49;;;;;;;;;;;2.50;38.30;;;;;;5082478;28;19951;-83
2022/03/07 01:48:15;;;;;;;;;;;2.50;38.40;;;;;;5071994;28;19917;-76
2022/03/07 01:50:42;;;;;;;;;;;2.50;39.10;;;;;;5062267;28;19928;-83
2022/03/07 01:53:08;;;;;;;;;;;2.50;38.30;;;;;;5077069;28;20019;-83
2022/03/07 01:55:34;;;;;;;;;;;2.50;38.30;;;;;;5073494;28;19925;-80
2022/03/07 01:58:00;;;;;;;;;;;2.50;37.90;;;;;;5069111;28;19932;-83
2022/03/07 02:00:27;;;;;;;;;;;2.50;38.50;;;;;;5076188;28;19920;-76
2022/03/07 02:02:54;;;;;;;;;;;2.40;38.30;;;;;;5081590;28;19917;-83
2022/03/07 02:05:20;;;;;;;;;;;2.40;38.40;;;;;;5063186;28;20031;-83
2022/03/07 02:07:46;;;;;;;;;;;2.40;39.20;;;;;;5067797;28;19978;-77
2022/03/07 02:10:12;;;;;;;;;;;2.40;38.50;;;;;;5067608;28;20174;-83
2022/03/07 02:12:39;;;;;;;;;;;2.40;37.90;;;;;;5083659;28;19928;-83
2022/03/07 02:15:07;;;;;;;;;;;2.50;38.30;;;;;;5085965;28;19935;-83
2022/03/07 02:17:34;;;;;;;;;;;2.40;38.20;;;;;;5084705;28;19971;-77
2022/03/07 02:20:00;;;;;;;;;;;2.40;38.20;;;;;;5041457;28;20309;-77
2022/03/07 02:22:26;;;;;;;;;;;2.50;37.90;;;;;;5071675;28;19970;-82
2022/03/07 02:24:52;;;;;;;;;;;2.50;38.40;;;;;;5053872;28;19920;-80
2022/03/07 02:27:18;;;;;;;;;;;2.50;38.40;;;;;;5053150;28;19924;-83
2022/03/07 02:29:45;;;;;;;;;;;2.50;38.30;;;;;;5053631;28;19963;-76
2022/03/07 02:32:11;;;;;;;;;;;2.50;38.10;;;;;;5055281;28;19929;-77
2022/03/07 02:34:37;;;;;;;;;;;2.50;38.30;;;;;;5055882;28;20041;-82
2022/03/07 02:37:04;;;;;;;;;;;2.60;38.20;;;;;;5053825;28;19931;-76
2022/03/07 02:39:30;;;;;;;;;;;2.50;38.10;;;;;;5048980;28;19970;-76
2022/03/07 02:41:56;;;;;;;;;;;2.50;38.30;;;;;;5060255;28;20274;-77
2022/03/07 02:44:23;;;;;;;;;;;2.60;38.20;;;;;;5063395;28;19924;-76
2022/03/07 02:46:49;;;;;;;;;;;2.60;38.20;;;;;;5071420;28;19931;-82
2022/03/07 02:49:16;;;;;;;;;;;2.60;38.20;;;;;;5062742;28;19925;-83
2022/03/07 02:51:42;;;;;;;;;;;2.60;38.20;;;;;;5076925;28;20453;-83
2022/03/07 02:54:08;;;;;;;;;;;2.60;37.90;;;;;;5049719;28;19924;-82
2022/03/07 02:56:34;;;;;;;;;;;2.60;38.40;;;;;;5058908;28;19946;-82
2022/03/07 02:59:00;;;;;;;;;;;2.50;38.50;;;;;;5049190;28;19925;-82
2022/03/07 03:01:26;;;;;;;;;;;2.50;38.40;;;;;;5053032;28;19924;-76
2022/03/07 03:03:52;;;;;;;;;;;2.50;38.50;;;;;;5060132;28;20378;-77
2022/03/07 03:06:18;;;;;;;;;;;2.50;38.60;;;;;;5053017;28;19931;-81
2022/03/07 03:08:44;;;;;;;;;;;2.50;38.60;;;;;;5069301;28;19951;-83
2022/03/07 03:11:11;;;;;;;;;;;2.50;38.60;;;;;;5056528;28;19966;-82
2022/03/07 03:13:37;;;;;;;;;;;2.50;38.60;;;;;;5074878;28;19924;-76
2022/03/07 03:16:05;;;;;;;;;;;2.40;38.60;;;;;;5039884;28;19934;-82
2022/03/07 03:18:31;;;;;;;;;;;2.50;38.20;;;;;;5073886;28;19916;-82
2022/03/07 03:20:57;;;;;;;;;;;2.50;38.70;;;;;;5074573;28;19922;-83
2022/03/07 03:23:23;;;;;;;;;;;2.50;38.80;;;;;;5074618;28;19956;-76
2022/03/07 03:25:49;;;;;;;;;;;2.40;38.70;;;;;;5044478;28;19947;-76
2022/03/07 03:28:15;;;;;;;;;;;2.50;38.60;;;;;;5068815;28;20006;-76
2022/03/07 03:30:41;;;;;;;;;;;2.50;38.10;;;;;;5076947;28;20293;-76
2022/03/07 03:33:08;;;;;;;;;;;2.50;38.20;;;;;;5056007;28;19962;-76
2022/03/07 03:35:36;;;;;;;;;;;2.50;38.60;;;;;;5054721;28;20019;-76
2022/03/07 03:38:22;;;;;;;;;;;2.50;38.60;;;;;;5056130;28;19920;-77
2022/03/07 03:40:48;;;;;;;;;;;2.50;38.60;;;;;;5056567;28;19924;-76
2022/03/07 03:43:14;;;;;;;;;;;2.40;38.60;;;;;;5064872;28;20001;-76
2022/03/07 03:45:40;;;;;;;;;;;2.40;38.20;;;;;;5064138;28;19924;-83
2022/03/07 03:48:05;;;;;;;;;;;2.50;38.70;;;;;;5058417;28;20301;-76
2022/03/07 03:50:31;;;;;;;;;;;2.40;38.50;;;;;;5056756;28;19982;-82
2022/03/07 03:52:57;;;;;;;;;;;2.50;38.60;;;;;;5056277;28;19921;-83
2022/03/07 03:55:23;;;;;;;;;;;2.50;38.60;;;;;;5070852;28;19978;-82
2022/03/07 03:57:49;;;;;;;;;;;2.50;38.10;;;;;;5055046;28;20410;-82
2022/03/07 04:00:17;;;;;;;;;;;2.50;38.60;;;;;;5056027;28;19923;-76
2022/03/07 04:02:43;;;;;;;;;;;2.50;38.50;;;;;;5054861;28;19936;-76
2022/03/07 04:05:11;;;;;;;;;;;2.40;38.50;;;;;;5055697;28;19924;-82
2022/03/07 04:07:38;;;;;;;;;;;2.40;38.60;;;;;;5056648;28;19971;-76
2022/03/07 04:10:05;;;;;;;;;;;2.30;38.70;;;;;;5052563;28;20003;-82
2022/03/07 04:12:31;;;;;;;;;;;2.30;38.70;;;;;;5039819;28;19924;-76
2022/03/07 04:14:57;;;;;;;;;;;2.30;38.80;;;;;;5055875;28;19954;-76
2022/03/07 04:17:22;;;;;;;;;;;2.40;38.70;;;;;;5051154;28;19924;-76
2022/03/07 04:19:49;;;;;;;;;;;2.30;38.70;;;;;;5073582;28;19930;-77
2022/03/07 04:22:15;;;;;;;;;;;2.30;38.30;;;;;;5060367;28;19943;-76
2022/03/07 04:24:41;;;;;;;;;;;2.30;38.60;;;;;;5056728;28;19960;-76
2022/03/07 04:27:07;;;;;;;;;;;2.30;38.80;;;;;;5055796;28;19924;-76
2022/03/07 04:29:34;;;;;;;;;;;2.30;38.80;;;;;;5080503;28;19920;-83
2022/03/07 04:32:00;;;;;;;;;;;2.30;38.70;;;;;;5065479;28;19925;-83
2022/03/07 04:34:26;;;;;;;;;;;2.30;38.80;;;;;;5055230;28;19956;-82
2022/03/07 04:36:52;;;;;;;;;;;2.30;38.70;;;;;;5055521;28;20023;-76
2022/03/07 04:39:18;;;;;;;;;;;2.30;38.80;;;;;;5055239;28;20302;-82
2022/03/07 04:41:44;;;;;;;;;;;2.30;38.70;;;;;;5054655;28;19928;-76
2022/03/07 04:44:11;;;;;;;;;;;2.30;38.70;;;;;;5071542;28;19954;-82
2022/03/07 04:46:37;;;;;;;;;;;2.30;38.60;;;;;;5054857;28;19966;-77
2022/03/07 04:49:04;;;;;;;;;;;2.30;38.60;;;;;;5054416;28;19925;-81
2022/03/07 04:51:30;;;;;;;;;;;2.30;38.70;;;;;;5053058;28;19999;-83
2022/03/07 04:53:56;;;;;;;;;;;2.30;38.80;;;;;;5055028;28;19932;-76
2022/03/07 04:56:22;;;;;;;;;;;2.30;38.80;;;;;;5073158;28;19920;-83
2022/03/07 04:58:48;;;;;;;;;;;2.30;38.30;;;;;;5038499;28;20317;-82
2022/03/07 05:01:14;;;;;;;;;;;2.30;38.90;;;;;;5070181;28;19945;-82
2022/03/07 05:03:40;;;;;;;;;;;2.20;38.80;;;;;;5056354;28;20392;-76
2022/03/07 05:06:08;;;;;;;;;;;2.20;38.70;;;;;;5055745;28;19924;-76
2022/03/07 05:08:37;;;;;;;;;;;2.20;38.70;;;;;;5046599;28;20015;-83
2022/03/07 05:11:04;;;;;;;;;;;2.20;38.40;;;;;;5053658;28;19924;-83
2022/03/07 05:13:30;;;;;;;;;;;2.20;38.40;;;;;;5071323;28;20024;-82
2022/03/07 05:15:56;;;;;;;;;;;2.20;38.90;;;;;;5053522;28;19925;-76
2022/03/07 05:18:22;;;;;;;;;;;2.10;39.00;;;;;;5071292;28;20309;-83
2022/03/07 05:20:48;;;;;;;;;;;2.20;39.00;;;;;;5061784;28;20369;-83
2022/03/07 05:23:14;;;;;;;;;;;2.10;39.00;;;;;;5064980;28;19932;-83
2022/03/07 05:25:40;;;;;;;;;;;2.10;39.10;;;;;;5055808;28;20281;-82
2022/03/07 05:28:06;;;;;;;;;;;2.10;39.10;;;;;;5060186;28;19932;-82
2022/03/07 05:30:32;;;;;;;;;;;2.00;39.00;;;;;;5068171;28;19924;-76
2022/03/07 05:32:58;;;;;;;;;;;2.00;39.00;;;;;;5036493;28;19920;-83
2022/03/07 05:35:24;;;;;;;;;;;2.00;39.00;;;;;;5071271;28;19921;-76
2022/03/07 05:37:50;;;;;;;;;;;2.00;39.00;;;;;;5055908;28;19924;-76
2022/03/07 05:40:17;;;;;;;;;;;2.00;38.90;;;;;;5052980;28;19928;-76
2022/03/07 05:42:43;;;;;;;;;;;2.00;38.90;;;;;;5054936;28;19925;-83
2022/03/07 05:45:11;;;;;;;;;;;2.10;38.60;;;;;;5055202;28;19928;-82
2022/03/07 05:47:38;;;;;;;;;;;2.10;38.90;;;;;;5055344;28;19920;-80
2022/03/07 05:50:05;;;;;;;;;;;2.10;39.00;;;;;;5054874;28;19924;-83
2022/03/07 05:52:31;;;;;;;;;;;2.10;38.80;;;;;;5052976;28;19924;-83
2022/03/07 05:54:57;;;;;;;;;;;2.20;38.80;;;;;;5087133;28;19931;-82
2022/03/07 05:57:23;;;;;;;;;;;2.20;38.90;;;;;;5075961;28;20376;-76
2022/03/07 05:59:49;;;;;;;;;;;2.20;38.80;;;;;;5063300;28;20171;-76
2022/03/07 06:02:15;;;;;;;;;;;2.30;38.90;;;;;;5059209;28;19920;-82
2022/03/07 06:04:42;;;;;;;;;;;2.40;38.30;;;;;;5058022;28;19928;-77
2022/03/07 06:07:08;;;;;;;;;;;2.40;38.70;;;;;;5057671;28;20171;-76
2022/03/07 06:09:34;;;;;;;;;;;2.50;38.60;;;;;;5058097;28;19977;-82
2022/03/07 06:12:00;;;;;;;;;;;2.60;38.60;;;;;;5058718;28;20370;-76
2022/03/07 06:14:26;;;;;;;;;;;2.60;38.60;;;;;;5063729;28;19920;-76
2022/03/07 06:16:52;;;;;;;;;;;2.60;38.50;;;;;;5070961;28;20015;-83
2022/03/07 06:19:18;;;;;;;;;;;2.70;38.60;;;;;;5056401;28;19925;-83
2022/03/07 06:21:44;;;;;;;;;;;2.80;38.40;;;;;;5068903;28;19924;-76
2022/03/07 06:24:11;;;;;;;;;;;2.80;38.30;;;;;;5058220;28;20289;-76
2022/03/07 06:26:38;;;;;;;;;;;2.90;37.90;;;;;;5058259;28;19927;-76
2022/03/07 06:29:05;;;;;;;;;;;2.90;37.80;;;;;;5056674;28;19970;-76
2022/03/07 06:31:31;;;;;;;;;;;3.00;38.30;;;;;;5055240;28;19932;-83
2022/03/07 06:33:57;;;;;;;;;;;3.00;37.80;;;;;;5058206;28;20613;-82
2022/03/07 06:36:23;;;;;;;;;;;3.10;38.30;;;;;;5057170;28;19931;-83
2022/03/07 06:38:49;;;;;;;;;;;3.20;38.20;;;;;;5057219;28;19928;-82
2022/03/07 06:41:15;;;;;;;;;;;3.30;38.20;;;;;;5055914;28;20391;-83
2022/03/07 06:43:41;;;;;;;;;;;3.30;38.10;;;;;;5060234;28;19935;-78
2022/03/07 06:46:07;;;;;;;;;;;3.40;38.10;;;;;;5071047;28;19973;-76
2022/03/07 06:48:35;;;;;;;;;;;3.50;38.00;;;;;;5044770;28;19925;-81
2022/03/07 06:51:01;;;;;;;;;;;3.60;37.90;;;;;;5039077;28;19928;-83
2022/03/07 06:53:27;;;;;;;;;;;3.70;37.60;;;;;;5075437;28;20175;-82
2022/03/07 06:55:53;;;;;;;;;;;3.80;37.10;;;;;;5073550;28;19924;-76
2022/03/07 06:58:21;;;;;;;;;;;3.90;37.60;;;;;;5064408;28;19931;-83
2022/03/07 07:00:48;;;;;;;;;;;4.00;37.50;;;;;;5084011;28;20365;-78
2022/03/07 07:03:14;;;;;;;;;;;4.00;37.30;;;;;;5055709;28;19924;-82
2022/03/07 07:05:40;;;;;;;;;;;4.10;37.30;;;;;;5056903;28;20006;-76
2022/03/07 07:08:06;;;;;;;;;;;4.20;37.20;;;;;;5073454;28;19952;-83
2022/03/07 07:10:32;;;;;;;;;;;4.30;37.20;;;;;;5057041;28;19980;-77
2022/03/07 07:12:58;;;;;;;;;;;4.40;37.00;;;;;;5057108;28;19936;-83
2022/03/07 07:15:24;;;;;;;;;;;4.40;37.10;;;;;;5039545;28;20303;-83
2022/03/07 07:17:50;;;;;;;;;;;4.50;37.10;;;;;;5073788;28;19920;-77
2022/03/07 07:20:16;;;;;;;;;;;4.50;37.00;;;;;;5055633;28;20311;-77
2022/03/07 07:22:42;;;;;;;;;;;4.60;36.40;;;;;;5074651;28;19973;-84
2022/03/07 07:25:09;;;;;;;;;;;4.60;36.70;;;;;;5039069;28;19928;-76
2022/03/07 07:27:36;;;;;;;;;;;4.60;36.80;;;;;;5055926;28;19935;-77
2022/03/07 07:30:03;;;;;;;;;;;4.60;36.90;;;;;;5056232;28;19916;-82
2022/03/07 07:32:29;;;;;;;;;;;4.60;36.80;;;;;;5060759;28;19917;-76
2022/03/07 07:34:55;;;;;;;;;;;4.60;36.90;;;;;;5055802;28;19925;-83
2022/03/07 07:37:21;;;;;;;;;;;4.60;36.80;;;;;;5047816;28;19931;-76
2022/03/07 07:39:47;;;;;;;;;;;4.60;36.80;;;;;;5066662;28;19928;-83
2022/03/07 07:42:13;;;;;;;;;;;4.60;36.20;;;;;;5074225;28;20027;-84
2022/03/07 07:44:39;;;;;;;;;;;4.70;36.60;;;;;;5064741;28;19916;-83
2022/03/07 07:47:07;;;;;;;;;;;4.70;36.70;;;;;;5055770;28;19995;-83
2022/03/07 07:49:33;;;;;;;;;;;4.70;36.50;;;;;;5042888;28;19968;-76
2022/03/07 07:51:59;;;;;;;;;;;4.80;36.30;;;;;;5062572;28;20288;-84
2022/03/07 07:54:26;;;;;;;;;;;4.90;35.90;;;;;;5067444;28;19932;-76
2022/03/07 07:56:52;;;;;;;;;;;5.10;36.00;;;;;;5055874;28;20426;-83
2022/03/07 07:59:18;;;;;;;;;;;5.20;36.00;;;;;;5056983;28;19916;-84
2022/03/07 08:01:44;;;;;;;;;;;5.30;35.90;;;;;;5055398;28;19936;-76
2022/03/07 08:04:12;;;;;;;;;;;5.40;35.60;;;;;;5056141;28;20388;-84
2022/03/07 08:06:39;;;;;;;;;;;5.50;35.20;;;;;;5053634;28;19924;-83
2022/03/07 08:09:06;;;;;;;;;;;5.60;35.40;;;;;;5055977;28;19925;-76
2022/03/07 08:11:31;;;;;;;;;;;6.00;35.30;;;;;;5056257;28;20377;-76
2022/03/07 08:13:57;;;;;;;;;;;6.80;34.60;;;;;;5039997;28;19930;-83
2022/03/07 08:16:25;;;;;;;;;;;7.50;33.50;;;;;;5053601;28;19924;-76
2022/03/07 08:18:51;;;;;;;;;;;8.50;32.90;;;;;;5072060;28;19924;-77
2022/03/07 08:21:21;;;;;;;;;;;9.50;32.80;;;;;;5064967;28;19928;-79
2022/03/07 08:23:47;;;;;;;;;;;10.30;32.30;;;;;;5073882;28;19927;-83
2022/03/07 08:26:13;;;;;;;;;;;10.80;31.50;;;;;;5059419;28;19925;-77
2022/03/07 08:28:39;;;;;;;;;;;11.40;31.40;;;;;;5067723;28;19931;-77
2022/03/07 08:31:05;;;;;;;;;;;12.10;30.90;;;;;;5090960;28;20274;-77
2022/03/07 08:33:32;;;;;;;;;;;12.80;31.20;;;;;;5071851;28;20288;-77
2022/03/07 08:35:58;;;;;;;;;;;13.10;30.30;;;;;;5063732;28;20300;-83
2022/03/07 08:38:24;;;;;;;;;;;12.70;30.40;;;;;;5081693;28;20376;-78
2022/03/07 08:40:50;;;;;;;;;;;13.20;30.40;;;;;;5065693;28;19931;-77
2022/03/07 08:43:16;;;;;;;;;;;13.50;29.70;;;;;;5056147;28;20270;-77
2022/03/07 08:45:42;;;;;;;;;;;13.20;29.50;;;;;;5073009;28;19967;-77
2022/03/07 08:48:08;;;;;;;;;;;12.70;29.80;;;;;;5075323;28;19976;-84
2022/03/07 08:50:34;;;;;;;;;;;12.30;29.80;;;;;;5055430;28;20379;-83
2022/03/07 08:53:00;;;;;;;;;;;12.20;29.70;;;;;;5073156;28;19924;-85
2022/03/07 08:55:26;;;;;;;;;;;12.50;29.20;;;;;;5054077;28;19954;-84
2022/03/07 08:57:51;;;;;;;;;;;13.10;28.70;;;;;;5054196;28;19925;-84
2022/03/07 09:00:18;;;;;;;;;;;14.00;27.90;;;;;;5089398;28;19947;-84
2022/03/07 09:02:44;;;;;;;;;;;14.50;27.20;;;;;;5090376;28;19943;-77
2022/03/07 09:05:10;;;;;;;;;;;14.30;27.50;;;;;;5055117;28;19920;-85
2022/03/07 09:07:36;;;;;;;;;;;14.00;27.60;;;;;;5076205;28;20278;-77
2022/03/07 09:10:02;;;;;;;;;;;14.00;27.40;;;;;;5055938;28;19924;-83
2022/03/07 09:12:28;;;;;;;;;;;14.40;26.70;;;;;;5072216;28;20220;-78
2022/03/07 09:14:56;;;;;;;;;;;14.60;26.70;;;;;;5062634;28;20007;-83
2022/03/07 09:17:23;;;;;;;;;;;14.60;26.40;;;;;;5037536;28;19960;-77
2022/03/07 09:19:49;;;;;;;;;;;15.00;26.00;;;;;;5042016;28;19991;-77
2022/03/07 09:22:15;;;;;;;;;;;14.70;25.60;;;;;;5069156;28;19928;-84
2022/03/07 09:24:41;;;;;;;;;;;14.50;25.80;;;;;;5088896;28;19935;-84
2022/03/07 09:27:07;;;;;;;;;;;14.40;25.90;;;;;;5083093;28;19951;-77
2022/03/07 09:29:33;;;;;;;;;;;14.60;25.70;;;;;;5062501;28;19924;-77
2022/03/07 09:31:59;;;;;;;;;;;15.10;24.70;;;;;;5069970;28;19935;-84
2022/03/07 09:34:25;;;;;;;;;;;15.10;24.50;;;;;;5058433;28;19933;-78
2022/03/07 09:36:51;;;;;;;;;;;15.30;24.90;;;;;;5057121;28;20281;-85
2022/03/07 09:39:17;;;;;;;;;;;15.40;24.80;;;;;;5077994;28;19932;-84
2022/03/07 09:41:43;;;;;;;;;;;15.50;24.50;;;;;;5058568;28;19921;-78
2022/03/07 09:44:09;;;;;;;;;;;16.00;24.30;;;;;;5059539;28;19931;-85
2022/03/07 09:46:36;;;;;;;;;;;16.10;23.90;;;;;;5057682;28;19920;-76
2022/03/07 09:49:02;;;;;;;;;;;16.50;23.70;;;;;;5057819;28;19924;-85
2022/03/07 09:51:28;;;;;;;;;;;16.60;23.40;;;;;;5059826;28;20007;-77
2022/03/07 09:53:54;;;;;;;;;;;16.30;23.40;;;;;;5041375;28;19924;-85
2022/03/07 09:56:20;;;;;;;;;;;15.90;23.50;;;;;;5075894;28;19920;-85
2022/03/07 09:58:46;;;;;;;;;;;15.60;23.10;;;;;;5089311;28;19935;-78
2022/03/07 10:01:19;;;;;;;;;;;15.10;23.50;;;;;;5057393;28;19924;-83
2022/03/07 10:03:46;;;;;;;;;;;14.90;23.70;;;;;;5059520;28;19969;-85
2022/03/07 10:06:31;;;;;;;;;;;14.70;23.60;;;;;;5057596;28;19924;-78
2022/03/07 10:09:01;;;;;;;;;;;14.70;23.60;;;;;;5060990;28;19932;-85
2022/03/07 10:11:28;;;;;;;;;;;14.60;23.50;;;;;;5052664;28;20480;-76
2022/03/07 10:13:57;;;;;;;;;;;14.40;23.50;;;;;;5058161;28;19931;-85
2022/03/07 10:16:24;;;;;;;;;;;14.30;23.40;;;;;;5074471;28;19928;-85
2022/03/07 10:18:51;;;;;;;;;;;14.20;23.40;;;;;;5065860;28;19970;-84
2022/03/07 10:21:36;;;;;;;;;;;14.30;23.20;;;;;;5066858;28;19956;-84
2022/03/07 10:24:03;;;;;;;;;;;14.50;23.10;;;;;;5047633;28;19925;-85
2022/03/07 10:26:34;;;;;;;;;;;14.40;22.70;;;;;;5075273;28;19943;-77
2022/03/07 10:29:00;;;;;;;;;;;14.10;23.20;;;;;;5048600;28;19930;-84
2022/03/07 10:31:29;;;;;;;;;;;14.00;23.30;;;;;;5075323;28;20426;-85
2022/03/07 10:34:14;;;;;;;;;;;14.20;23.20;;;;;;5040646;28;19967;-76
2022/03/07 10:36:43;;;;;;;;;;;14.30;22.60;;;;;;5048803;28;19924;-82
2022/03/07 10:39:27;;;;;;;;;;;14.30;22.60;;;;;;5059148;28;19975;-85
2022/03/07 10:41:54;;;;;;;;;;;14.00;22.50;;;;;;5056802;28;20019;-77
2022/03/07 10:44:38;;;;;;;;;;;13.80;22.70;;;;;;5057187;28;19959;-77
2022/03/07 10:47:24;;;;;;;;;;;14.30;22.50;;;;;;5067229;28;19931;-83
2022/03/07 10:49:53;;;;;;;;;;;15.60;21.70;;;;;;5062770;28;19978;-77
2022/03/07 10:52:21;;;;;;;;;;;16.20;20.90;;;;;;5084630;28;19955;-85
2022/03/07 10:54:49;;;;;;;;;;;16.60;20.80;;;;;;5046789;28;20019;-79
2022/03/07 10:57:17;;;;;;;;;;;17.30;20.40;;;;;;5063615;28;20380;-77
2022/03/07 10:59:44;;;;;;;;;;;18.30;19.20;;;;;;5050922;28;19943;-84
2022/03/07 11:02:31;;;;;;;;;;;18.30;18.70;;;;;;5040744;28;19925;-84
2022/03/07 11:04:57;;;;;;;;;;;18.40;19.40;;;;;;5084009;28;19924;-84
2022/03/07 11:07:22;;;;;;;;;;;18.10;19.90;;;;;;5065104;28;20442;-85
2022/03/07 11:09:52;;;;;;;;;;;17.50;20.40;;;;;;5063791;28;20368;-84
2022/03/07 11:12:18;;;;;;;;;;;16.80;20.80;;;;;;5068449;28;19925;-85
2022/03/07 11:14:44;;;;;;;;;;;16.00;20.90;;;;;;5073832;28;19956;-77
2022/03/07 11:17:31;;;;;;;;;;;15.50;21.70;;;;;;5056115;28;19931;-86
2022/03/07 11:19:57;;;;;;;;;;;15.20;21.70;;;;;;5063287;28;19932;-76
2022/03/07 11:22:24;;;;;;;;;;;15.20;21.30;;;;;;5069226;28;19935;-85
2022/03/07 11:24:50;;;;;;;;;;;15.40;21.30;;;;;;5071895;28;19932;-76
2022/03/07 11:27:17;;;;;;;;;;;15.90;21.20;;;;;;5071679;28;19930;-84
2022/03/07 11:29:43;;;;;;;;;;;16.90;20.50;;;;;;5057128;28;19935;-84
2022/03/07 11:32:30;;;;;;;;;;;18.20;18.90;;;;;;5090886;28;19924;-77
2022/03/07 11:34:58;;;;;;;;;;;18.70;18.90;;;;;;5074661;28;19940;-77
2022/03/07 11:37:29;;;;;;;;;;;19.80;18.40;;;;;;5073564;28;19924;-85
2022/03/07 11:39:58;;;;;;;;;;;20.70;17.40;;;;;;5056216;28;19940;-76
2022/03/07 11:42:36;;;;;;;;;;;21.30;16.60;;;;;;5053709;28;19933;-76
2022/03/07 11:45:21;;;;;;;;;;;22.30;16.20;;;;;;5071061;28;19927;-84
2022/03/07 11:47:48;;;;;;;;;;;23.50;15.80;;;;;;5054262;28;19941;-78
2022/03/07 11:53:19;;;;;;;;;;;21.30;17.20;;;;;;5073065;28;20443;-77
2022/03/07 11:56:04;;;;;;;;;;;19.60;18.00;;;;;;5069068;28;19931;-85
2022/03/07 11:58:35;;;;;;;;;;;19.10;18.60;;;;;;5071097;28;19924;-85
2022/03/07 12:01:20;;;;;;;;;;;18.80;18.70;;;;;;5073299;28;20293;-85
2022/03/07 12:03:49;;;;;;;;;;;18.80;18.90;;;;;;5065108;28;19985;-76
2022/03/07 12:06:18;;;;;;;;;;;20.60;17.60;;;;;;5059885;28;19928;-85
2022/03/07 12:09:02;;;;;;;;;;;20.00;17.60;;;;;;5047263;28;19935;-77
2022/03/07 12:11:56;;;;;;;;;;;18.90;18.10;;;;;;5053313;28;20086;-85
2022/03/07 12:14:47;;;;;;;;;;;17.80;18.70;;;;;;5068175;28;20429;-77
2022/03/07 12:17:32;;;;;;;;;;;17.00;19.20;;;;;;5052464;28;20155;-76
2022/03/07 12:19:59;;;;;;;;;;;16.30;19.60;;;;;;5051678;28;20305;-77
2022/03/07 12:22:27;;;;;;;;;;;16.10;19.70;;;;;;5050239;28;19950;-84
2022/03/07 12:25:16;;;;;;;;;;;16.00;19.60;;;;;;5058181;28;20408;-84
2022/03/07 12:27:43;;;;;;;;;;;16.20;19.50;;;;;;5052076;28;19925;-82
2022/03/07 12:30:10;;;;;;;;;;;16.40;19.20;;;;;;5053008;28;19933;-77
2022/03/07 12:32:38;;;;;;;;;;;16.20;19.10;;;;;;5044065;28;19927;-77
2022/03/07 12:35:05;;;;;;;;;;;16.90;19.00;;;;;;5043320;28;19932;-84
2022/03/07 12:37:32;;;;;;;;;;;18.50;18.00;;;;;;5068931;28;19920;-84
2022/03/07 12:40:17;;;;;;;;;;;20.50;16.60;;;;;;5061152;28;19944;-77
2022/03/07 12:42:43;;;;;;;;;;;19.50;16.70;;;;;;5036233;28;19925;-85
2022/03/07 12:45:09;;;;;;;;;;;18.30;17.60;;;;;;5051216;28;19927;-77
2022/03/07 12:47:54;;;;;;;;;;;17.20;17.90;;;;;;5051645;28;19978;-86
2022/03/07 12:50:42;;;;;;;;;;;16.40;19.00;;;;;;5052957;28;19931;-77
2022/03/07 12:53:27;;;;;;;;;;;16.10;19.20;;;;;;5059552;28;19921;-78
2022/03/07 12:56:01;;;;;;;;;;;17.80;18.30;;;;;;5050623;28;19925;-77
2022/03/07 12:58:28;;;;;;;;;;;17.70;18.00;;;;;;5050628;28;20017;-85
2022/03/07 13:00:56;;;;;;;;;;;18.10;18.30;;;;;;5052584;28;19931;-78
2022/03/07 13:03:22;;;;;;;;;;;19.60;17.00;;;;;;5050213;28;19971;-85
2022/03/07 13:05:59;;;;;;;;;;;21.60;15.10;;;;;;5054252;28;20320;-84
2022/03/07 13:08:26;;;;;;;;;;;20.20;16.00;;;;;;5051956;28;19932;-85
2022/03/07 13:10:52;;;;;;;;;;;18.80;16.50;;;;;;5051130;28;19929;-77
2022/03/07 13:13:18;;;;;;;;;;;17.80;17.70;;;;;;5052514;28;19970;-85
2022/03/07 13:15:44;;;;;;;;;;;16.80;18.40;;;;;;5051152;28;20337;-77
2022/03/07 13:18:10;;;;;;;;;;;16.00;19.00;;;;;;5058535;28;20027;-78
2022/03/07 13:20:37;;;;;;;;;;;15.40;19.40;;;;;;5064957;28;20012;-85
2022/03/07 13:23:05;;;;;;;;;;;15.20;19.20;;;;;;5067833;28;19931;-84
2022/03/07 13:25:49;;;;;;;;;;;16.20;18.90;;;;;;5034878;28;19925;-77
2022/03/07 13:28:26;;;;;;;;;;;16.90;18.20;;;;;;5050842;28;19929;-77
2022/03/07 13:30:52;;;;;;;;;;;16.50;18.40;;;;;;5068809;28;19924;-84
2022/03/07 13:33:19;;;;;;;;;;;17.00;18.00;;;;;;5055530;28;20296;-85
2022/03/07 13:35:45;;;;;;;;;;;16.50;18.30;;;;;;5050993;28;20020;-84
2022/03/07 13:38:34;;;;;;;;;;;15.80;18.90;;;;;;5052800;28;19928;-85
2022/03/07 13:41:19;;;;;;;;;;;15.20;19.40;;;;;;5050898;28;19947;-80
2022/03/07 13:43:45;;;;;;;;;;;14.60;19.60;;;;;;5070022;28;19924;-77
2022/03/07 13:46:29;;;;;;;;;;;14.00;20.00;;;;;;5066180;28;19932;-84
2022/03/07 13:49:04;;;;;;;;;;;13.60;20.20;;;;;;5051408;28;19925;-84
2022/03/07 13:51:30;;;;;;;;;;;13.60;20.30;;;;;;5032847;28;19925;-77
2022/03/07 13:54:15;;;;;;;;;;;14.20;20.30;;;;;;5051664;28;19933;-86
2022/03/07 13:56:41;;;;;;;;;;;17.40;18.30;;;;;;5068288;28;19920;-76
2022/03/07 13:59:26;;;;;;;;;;;20.00;16.60;;;;;;5033216;28;19955;-84
2022/03/07 14:01:52;;;;;;;;;;;20.40;15.00;;;;;;5036544;28;19925;-76
2022/03/07 14:04:18;;;;;;;;;;;18.80;16.20;;;;;;5033043;28;19929;-77
2022/03/07 14:06:45;;;;;;;;;;;17.30;17.30;;;;;;5050530;28;19924;-84
2022/03/07 14:09:31;;;;;;;;;;;16.10;18.30;;;;;;5070494;28;20320;-84
2022/03/07 14:12:23;;;;;;;;;;;15.30;19.10;;;;;;5069001;28;19927;-83
2022/03/07 14:15:09;;;;;;;;;;;15.70;19.20;;;;;;5066978;28;19917;-82
2022/03/07 14:17:37;;;;;;;;;;;17.20;17.90;;;;;;5040373;28;19928;-84
2022/03/07 14:20:05;;;;;;;;;;;18.90;16.80;;;;;;5082660;28;19924;-84
2022/03/07 14:22:31;;;;;;;;;;;20.80;15.60;;;;;;5051947;28;19928;-77
2022/03/07 14:24:58;;;;;;;;;;;22.10;14.50;;;;;;5047786;28;19920;-84
2022/03/07 14:27:43;;;;;;;;;;;22.80;13.60;;;;;;5051144;28;19925;-76
2022/03/07 14:30:09;;;;;;;;;;;23.50;13.50;;;;;;5055015;28;19920;-84
2022/03/07 14:32:35;;;;;;;;;;;23.70;13.10;;;;;;5061821;28;20029;-78